Aviation Digital Data Service (ADDS)

Output produced by METARs form (0258 UTC 21 January 2018)
found at http://www.aviationweather.gov/adds/metars/
 
KMBO 210235Z AUTO 16003KT 10SM CLR 13/09 A3018 RMK AO2 PWINO
KMBO 210215Z AUTO 00000KT 10SM CLR 14/09 A3017 RMK AO2
KMBO 210155Z AUTO 16003KT 10SM CLR 15/10 A3018 RMK AO2
KMBO 210135Z AUTO 00000KT 10SM CLR 15/10 A3017 RMK AO2
KMBO 210115Z AUTO 15003KT 10SM SCT100 15/10 A3017 RMK AO2
KMBO 210055Z AUTO 00000KT 10SM CLR 16/10 A3017 RMK AO2
KMBO 210035Z AUTO 00000KT 10SM SCT090 16/10 A3016 RMK AO2
KMBO 210015Z AUTO 00000KT 10SM SCT090 16/10 A3016 RMK AO2
KMBO 202355Z AUTO 16003KT 10SM SCT090 16/10 A3015 RMK AO2
KMBO 202335Z AUTO 16003KT 10SM SCT095 16/10 A3015 RMK AO2
KMBO 202315Z AUTO 17003KT 10SM CLR 17/10 A3016 RMK AO2
KMBO 202255Z AUTO 17004KT 10SM CLR 17/10 A3015 RMK AO2
KMBO 202235Z AUTO 18005KT 10SM SCT040 SCT095 17/10 A3016 RMK AO2
KMBO 202215Z AUTO 18007KT 10SM BKN038 17/10 A3016 RMK AO2
KMBO 202155Z AUTO 17006KT 10SM BKN038 18/10 A3016 RMK AO2
KMBO 202135Z AUTO 18005KT 10SM CLR 18/10 A3015 RMK AO2
KMBO 202115Z AUTO 16004KT 10SM CLR 17/10 A3015 RMK AO2
KMBO 202055Z AUTO 15004KT 10SM CLR 18/10 A3015 RMK AO2
KMBO 202035Z AUTO 17005KT 10SM CLR 18/10 A3015 RMK AO2
KMBO 202015Z AUTO 16006KT 10SM CLR 20/10 A3015 RMK AO2
KMBO 201955Z AUTO 18004G15KT 10SM SCT038 SCT090 SCT120 18/10 A3015 RMK AO2
KMBO 201935Z AUTO 19008KT 142V222 10SM SCT038 SCT044 19/09 A3016 RMK AO2
KMBO 201915Z AUTO 16005G16KT 10SM BKN038 18/09 A3017 RMK AO2
KMBO 201855Z AUTO 19010G15KT 10SM OVC038 18/08 A3018 RMK AO2
KMBO 201835Z AUTO 18009KT 132V232 10SM SCT036 BKN043 17/07 A3019 RMK AO2
KMBO 201815Z AUTO 19008G14KT 10SM SCT038 17/07 A3019 RMK AO2
KMBO 201755Z AUTO 19011G18KT 10SM CLR 17/07 A3020 RMK AO2
KMBO 201735Z AUTO 20011G15KT 10SM CLR 17/07 A3021 RMK AO2
KMBO 201715Z AUTO 20011G15KT 10SM CLR 17/07 A3022 RMK AO2
KMBO 201655Z AUTO 15003KT 10SM SCT035 15/03 A3023 RMK AO2
KMBO 201635Z AUTO 18007KT 142V202 10SM BKN033 15/03 A3024 RMK AO2
KMBO 201615Z AUTO 16004KT 10SM SCT031 13/02 A3025 RMK AO2
KMBO 201555Z AUTO 17003KT 10SM SCT031 12/01 A3025 RMK AO2
KMBO 201535Z AUTO 16005KT 10SM SCT031 11/00 A3025 RMK AO2
KMBO 201515Z AUTO 17004KT 10SM BKN031 11/M01 A3024 RMK AO2
KMBO 201455Z AUTO 18003KT 10SM SCT031 SCT110 10/M06 A3024 RMK AO2
KMBO 201435Z AUTO 00000KT 10SM CLR 08/M06 A3023 RMK AO2
KMBO 201415Z AUTO 00000KT 10SM CLR 05/M03 A3023 RMK AO2
KMBO 201355Z AUTO 00000KT 10SM CLR 02/M03 A3023 RMK AO2
KMBO 201335Z AUTO 00000KT 10SM CLR 02/M03 A3022 RMK AO2 PWINO
KMBO 201315Z AUTO 00000KT 10SM CLR 02/M05 A3022 RMK AO2 PWINO
KMBO 201255Z AUTO 00000KT 10SM CLR 03/M05 A3022 RMK AO2 PWINO
KMBO 201235Z AUTO 00000KT 10SM CLR 03/M06 A3021 RMK AO2
KMBO 201215Z AUTO 00000KT 10SM CLR 04/M06 A3022 RMK AO2
KMBO 201155Z AUTO 13003KT 10SM BKN075 05/M06 A3021 RMK AO2
KMBO 201135Z AUTO 00000KT 10SM OVC065 04/M04 A3022 RMK AO2
KMBO 201115Z AUTO 00000KT 10SM BKN065 03/M04 A3021 RMK AO2
KMBO 201055Z AUTO 00000KT 10SM BKN075 02/M03 A3021 RMK AO2 PWINO
KMBO 201035Z AUTO 00000KT 10SM CLR 01/M03 A3021 RMK AO2 PWINO
KMBO 201015Z AUTO 00000KT 10SM CLR 02/M03 A3021 RMK AO2 PWINO
KMBO 200955Z AUTO 00000KT 10SM CLR 03/M05 A3021 RMK AO2 PWINO
KMBO 200935Z AUTO 00000KT 10SM SCT060 03/M05 A3021 RMK AO2 PWINO
KMBO 200915Z AUTO 00000KT 10SM SCT060 03/M04 A3021 RMK AO2 PWINO
KMBO 200855Z AUTO 00000KT 10SM CLR 05/M05 A3021 RMK AO2 PWINO
KMBO 200835Z AUTO 00000KT 10SM SCT060 06/M06 A3021 RMK AO2 PWINO
KMBO 200815Z AUTO 00000KT 10SM CLR 06/M05 A3020 RMK AO2 PWINO
KMBO 200755Z AUTO 00000KT 10SM CLR 06/M05 A3020 RMK AO2 PWINO
KMBO 200735Z AUTO 15003KT 10SM CLR 07/M05 A3020 RMK AO2 PWINO
KMBO 200715Z AUTO 00000KT 10SM CLR 07/M05 A3021 RMK AO2 PWINO
KMBO 200655Z AUTO 17003KT 10SM SCT050 08/M05 A3021 RMK AO2 PWINO
KMBO 200635Z AUTO 18004KT 10SM OVC050 08/M04 A3021 RMK AO2 PWINO
KMBO 200615Z AUTO 15004KT 10SM OVC050 08/M03 A3021 RMK AO2 PWINO
KMBO 200555Z AUTO 17004KT 10SM OVC050 08/M03 A3023 RMK AO2 PWINO
KMBO 200535Z AUTO 17005KT 10SM OVC050 08/M03 A3023 RMK AO2 PWINO
KMBO 200515Z AUTO 19003KT 10SM OVC050 08/M03 A3024 RMK AO2 PWINO
KMBO 200455Z AUTO 14003KT 10SM OVC050 08/M03 A3023 RMK AO2 PWINO
KMBO 200435Z AUTO 13003KT 10SM OVC050 07/M03 A3023 RMK AO2 PWINO
KMBO 200415Z AUTO 00000KT 10SM OVC050 08/M04 A3023 RMK AO2 PWINO
KMBO 200355Z AUTO 14003KT 10SM OVC050 07/M04 A3023 RMK AO2 PWINO
KMBO 200335Z AUTO 00000KT 10SM OVC050 07/M03 A3023 RMK AO2 PWINO
KMBO 200315Z AUTO 00000KT 10SM OVC050 06/M01 A3024 RMK AO2 PWINO
KMBO 200255Z AUTO 00000KT 10SM OVC050 06/M03 A3023 RMK AO2 PWINO
KMBO 200235Z AUTO 00000KT 10SM OVC050 07/M03 A3023 RMK AO2 PWINO
KMBO 200215Z AUTO 00000KT 10SM OVC050 07/M03 A3023 RMK AO2 PWINO
KMBO 200155Z AUTO 00000KT 10SM OVC050 06/M02 A3023 RMK AO2 PWINO
KMBO 200135Z AUTO 00000KT 10SM OVC050 06/M01 A3023 RMK AO2 PWINO
KMBO 200115Z AUTO 00000KT 10SM OVC050 06/M02 A3022 RMK AO2 PWINO
KMBO 200055Z AUTO 00000KT 10SM OVC050 06/M03 A3022 RMK AO2 PWINO
KMBO 200035Z AUTO 00000KT 10SM OVC050 06/M03 A3022 RMK AO2 PWINO
KMBO 200015Z AUTO 00000KT 10SM OVC050 06/M03 A3023 RMK AO2 PWINO
KMBO 192355Z AUTO 00000KT 10SM OVC050 06/M02 A3022 RMK AO2 PWINO
KMBO 192335Z AUTO 00000KT 10SM OVC050 07/M05 A3022 RMK AO2 PWINO
KMBO 192315Z AUTO 00000KT 10SM OVC050 07/M04 A3022 RMK AO2
KMBO 192255Z AUTO 00000KT 10SM OVC050 08/M07 A3023 RMK AO2
KMBO 192235Z AUTO 00000KT 10SM OVC050 08/M06 A3023 RMK AO2
KMBO 192215Z AUTO 00000KT 10SM OVC050 10/M07 A3023 RMK AO2
KMBO 192155Z AUTO 00000KT 10SM OVC050 10/M10 A3023 RMK AO2
KMBO 192135Z AUTO 00000KT 10SM OVC050 10/M10 A3023 RMK AO2
KMBO 192115Z AUTO 00000KT 10SM OVC050 10/M11 A3023 RMK AO2
KMBO 192055Z AUTO 00000KT 10SM OVC050 10/M11 A3023 RMK AO2
KMBO 192035Z AUTO 00000KT 10SM BKN050 10/M11 A3024 RMK AO2
KMBO 192015Z AUTO 00000KT 10SM BKN050 10/M11 A3024 RMK AO2
KMBO 191955Z AUTO 00000KT 10SM BKN050 10/M11 A3026 RMK AO2
KMBO 191935Z AUTO 14003KT 10SM SCT050 10/M10 A3026 RMK AO2
KMBO 191915Z AUTO 12003KT 10SM SCT050 10/M10 A3028 RMK AO2
KMBO 191855Z AUTO 16004KT 10SM SCT060 09/M11 A3029 RMK AO2
KMBO 191835Z AUTO 18004KT 10SM SCT060 08/M11 A3029 RMK AO2
KMBO 191815Z AUTO 18005KT 10SM SCT060 08/M10 A3030 RMK AO2
KMBO 191755Z AUTO 18004KT 10SM SCT060 08/M10 A3032 RMK AO2
KMBO 191735Z AUTO 19003KT 10SM BKN060 07/M10 A3034 RMK AO2
KMBO 191715Z AUTO 20006KT 10SM BKN060 07/M10 A3035 RMK AO2
KMBO 191655Z AUTO 20004KT 10SM BKN060 07/M09 A3035 RMK AO2
KMBO 191635Z AUTO 18005KT 10SM SCT060 07/M08 A3037 RMK AO2
KMBO 191615Z AUTO 22004KT 10SM CLR 06/M07 A3038 RMK AO2
KMBO 191555Z AUTO 19003KT 10SM CLR 05/M07 A3038 RMK AO2
KMBO 191535Z AUTO 18004KT 10SM CLR 03/M07 A3038 RMK AO2
KMBO 191515Z AUTO 00000KT 10SM SCT060 02/M06 A3037 RMK AO2
KMBO 191455Z AUTO 00000KT 10SM OVC060 00/M06 A3037 RMK AO2 PWINO
KMBO 191435Z AUTO 00000KT 10SM OVC060 00/M07 A3037 RMK AO2
KMBO 191415Z AUTO 00000KT 10SM OVC060 M01/M07 A3036 RMK AO2
KMBO 191355Z AUTO 00000KT 10SM OVC050 M02/M06 A3035 RMK AO2
KMBO 191335Z AUTO 00000KT 10SM OVC050 M02/M05 A3035 RMK AO2
KMBO 191315Z AUTO 00000KT 10SM OVC050 M02/M06 A3036 RMK AO2
KMBO 191255Z AUTO 00000KT 10SM OVC048 M03/M06 A3037 RMK AO2
KMBO 191235Z AUTO 00000KT 10SM OVC048 M03/M05 A3036 RMK AO2
KMBO 191215Z AUTO 00000KT 10SM OVC048 M05/M06 A3035 RMK AO2
KMBO 191155Z AUTO 00000KT 10SM OVC050 M05/M07 A3035 RMK AO2
KMBO 191135Z AUTO 00000KT 10SM BKN050 M06/M07 A3035 RMK AO2
KMBO 191115Z AUTO 00000KT 10SM CLR M06/M08 A3035 RMK AO2
KMBO 191055Z AUTO 00000KT 10SM CLR M07/M08 A3035 RMK AO2
KMBO 191035Z AUTO 00000KT 10SM CLR M07/M08 A3035 RMK AO2
KMBO 191015Z AUTO 00000KT 10SM CLR M07/M08 A3035 RMK AO2
KMBO 190955Z AUTO 00000KT 10SM CLR M07/M09 A3035 RMK AO2
KMBO 190935Z AUTO 00000KT 10SM CLR M07/M08 A3035 RMK AO2
KMBO 190915Z AUTO 00000KT 10SM CLR M07/M08 A3036 RMK AO2
KMBO 190855Z AUTO 00000KT 10SM CLR M07/M09 A3036 RMK AO2
KMBO 190835Z AUTO 00000KT 10SM CLR M07/M09 A3037 RMK AO2
KMBO 190815Z AUTO 00000KT 10SM CLR M07/M08 A3037 RMK AO2
KMBO 190755Z AUTO 00000KT 10SM CLR M07/M08 A3038 RMK AO2
KMBO 190735Z AUTO 00000KT 10SM CLR M06/M08 A3039 RMK AO2
KMBO 190715Z AUTO 00000KT 10SM CLR M07/M08 A3039 RMK AO2
KMBO 190655Z AUTO 00000KT 10SM CLR M06/M08 A3039 RMK AO2
KMBO 190635Z AUTO 00000KT 10SM CLR M06/M09 A3040 RMK AO2
KMBO 190615Z AUTO 00000KT 10SM CLR M06/M08 A3040 RMK AO2
KMBO 190555Z AUTO 00000KT 10SM CLR M06/M09 A3040 RMK AO2
KMBO 190535Z AUTO 00000KT 10SM CLR M06/M09 A3039 RMK AO2
KMBO 190515Z AUTO 00000KT 10SM CLR M06/M09 A3039 RMK AO2
KMBO 190455Z AUTO 00000KT 10SM CLR M05/M08 A3040 RMK AO2
KMBO 190435Z AUTO 00000KT 10SM CLR M05/M09 A3041 RMK AO2
KMBO 190415Z AUTO 00000KT 10SM CLR M05/M08 A3041 RMK AO2
KMBO 190355Z AUTO 00000KT 10SM CLR M05/M10 A3041 RMK AO2
KMBO 190335Z AUTO 00000KT 10SM CLR M05/M10 A3042 RMK AO2
KMBO 190315Z AUTO 00000KT 10SM CLR M04/M10 A3041 RMK AO2
KMBO 190255Z AUTO 00000KT 10SM CLR M04/M09 A3041 RMK AO2
KMBO 190235Z AUTO 00000KT 10SM CLR M04/M10 A3041 RMK AO2
KMBO 190215Z AUTO 00000KT 10SM CLR M03/M10 A3040 RMK AO2
KMBO 190155Z AUTO 00000KT 10SM CLR M03/M08 A3040 RMK AO2
KMBO 190135Z AUTO 00000KT 10SM CLR M03/M10 A3041 RMK AO2
KMBO 190115Z AUTO 00000KT 10SM CLR M03/M12 A3042 RMK AO2
KMBO 190055Z AUTO 00000KT 10SM CLR M02/M10 A3042 RMK AO2
KMBO 190035Z AUTO 00000KT 10SM CLR M02/M08 A3042 RMK AO2
KMBO 190015Z AUTO 00000KT 10SM CLR M01/M13 A3042 RMK AO2
KMBO 182355Z AUTO 00000KT 10SM CLR M01/M11 A3041 RMK AO2
KMBO 182335Z AUTO 00000KT 10SM CLR 00/M11 A3041 RMK AO2 PWINO
KMBO 182315Z AUTO 00000KT 10SM CLR 01/M12 A3041 RMK AO2 PWINO
KMBO 182255Z AUTO 00000KT 10SM CLR 02/M12 A3042 RMK AO2
KMBO 182235Z AUTO 00000KT 10SM CLR 03/M13 A3042 RMK AO2
KMBO 182215Z AUTO 00000KT 10SM CLR 03/M13 A3043 RMK AO2
KMBO 182155Z AUTO 00000KT 10SM CLR 03/M13 A3044 RMK AO2
KMBO 182135Z AUTO 00000KT 10SM CLR 03/M12 A3044 RMK AO2
KMBO 182115Z AUTO 00000KT 10SM CLR 03/M12 A3044 RMK AO2
KMBO 182055Z AUTO 00000KT 10SM CLR 03/M11 A3046 RMK AO2
KMBO 182035Z AUTO 00000KT 10SM CLR 02/M10 A3046 RMK AO2
KMBO 182015Z AUTO 00000KT 10SM CLR 02/M10 A3047 RMK AO2
KMBO 181955Z AUTO 07003KT 10SM CLR 02/M09 A3048 RMK AO2
KMBO 181935Z AUTO 00000KT 10SM CLR 01/M09 A3049 RMK AO2
KMBO 181915Z AUTO 12004KT 10SM CLR 02/M09 A3050 RMK AO2
KMBO 181855Z AUTO 00000KT 10SM CLR 01/M10 A3051 RMK AO2
KMBO 181835Z AUTO 00000KT 10SM CLR 01/M09 A3052 RMK AO2
KMBO 181815Z AUTO 00000KT 10SM CLR 00/M10 A3054 RMK AO2
KMBO 181755Z AUTO 00000KT 10SM CLR 00/M10 A3056 RMK AO2
KMBO 181735Z AUTO 00000KT 10SM CLR 00/M10 A3057 RMK AO2
KMBO 181715Z AUTO 00000KT 10SM CLR M01/M11 A3059 RMK AO2
KMBO 181655Z AUTO 00000KT 10SM CLR M02/M10 A3059 RMK AO2
KMBO 181635Z AUTO 00000KT 10SM CLR M02/M10 A3060 RMK AO2
KMBO 181615Z AUTO 00000KT 10SM CLR M03/M10 A3061 RMK AO2
KMBO 181555Z AUTO 00000KT 10SM CLR M03/M10 A3061 RMK AO2
KMBO 181535Z AUTO 00000KT 10SM CLR M04/M10 A3060 RMK AO2
KMBO 181515Z AUTO 00000KT 10SM CLR M05/M10 A3059 RMK AO2
KMBO 181455Z AUTO 04003KT 10SM CLR M06/M10 A3059 RMK AO2
KMBO 181435Z AUTO 02003KT 10SM CLR M07/M10 A3059 RMK AO2
KMBO 181415Z AUTO 00000KT 10SM CLR M08/M10 A3059 RMK AO2
KMBO 181355Z AUTO 00000KT 10SM CLR M10/M11 A3059 RMK AO2
KMBO 181335Z AUTO 00000KT 10SM CLR M11/M12 A3059 RMK AO2
KMBO 181315Z AUTO 00000KT 10SM CLR M11/M12 A3059 RMK AO2
KMBO 181255Z AUTO 00000KT 10SM CLR M11/M12 A3059 RMK AO2
KMBO 181235Z AUTO 00000KT 10SM CLR M11/M12 A3058 RMK AO2
KMBO 181215Z AUTO 00000KT 10SM CLR M11/M12 A3058 RMK AO2
KMBO 181155Z AUTO 00000KT 10SM CLR M11/M12 A3058 RMK AO2
KMBO 181135Z AUTO 00000KT 10SM CLR M11/M12 A3058 RMK AO2
KMBO 181115Z AUTO 00000KT 10SM CLR M11/M12 A3057 RMK AO2
KMBO 181055Z AUTO 00000KT 10SM CLR M11/M12 A3057 RMK AO2
KMBO 181035Z AUTO 00000KT 10SM CLR M11/M12 A3058 RMK AO2
KMBO 181015Z AUTO 00000KT 10SM CLR M11/M12 A3058 RMK AO2
KMBO 180955Z AUTO 00000KT 10SM CLR M11/M12 A3058 RMK AO2
KMBO 180935Z AUTO 00000KT 10SM CLR M11/M11 A3059 RMK AO2
KMBO 180915Z AUTO 00000KT 10SM CLR M10/M11 A3059 RMK AO2
KMBO 180855Z AUTO 00000KT 10SM CLR M10/M11 A3058 RMK AO2
KMBO 180835Z AUTO 00000KT 10SM CLR M10/M11 A3058 RMK AO2
KMBO 180815Z AUTO 00000KT 10SM CLR M10/M11 A3058 RMK AO2
KMBO 180755Z AUTO 00000KT 10SM CLR M10/M11 A3059 RMK AO2
KMBO 180735Z AUTO 00000KT 10SM CLR M09/M11 A3058 RMK AO2
KMBO 180715Z AUTO 00000KT 10SM CLR M09/M11 A3059 RMK AO2
KMBO 180655Z AUTO 00000KT 10SM CLR M09/M11 A3059 RMK AO2
KMBO 180635Z AUTO 00000KT 10SM CLR M09/M11 A3060 RMK AO2
KMBO 180615Z AUTO 00000KT 10SM CLR M08/M11 A3061 RMK AO2
KMBO 180555Z AUTO 00000KT 10SM CLR M09/M11 A3062 RMK AO2
KMBO 180535Z AUTO 33003KT 10SM CLR M08/M11 A3062 RMK AO2
KMBO 180515Z AUTO 00000KT 10SM CLR M08/M11 A3062 RMK AO2
KMBO 180455Z AUTO 33003KT 10SM CLR M08/M11 A3062 RMK AO2
KMBO 180435Z AUTO 00000KT 10SM CLR M08/M11 A3062 RMK AO2
KMBO 180415Z AUTO 33003KT 10SM CLR M08/M11 A3062 RMK AO2
KMBO 180355Z AUTO 34003KT 10SM CLR M08/M11 A3062 RMK AO2
KMBO 180335Z AUTO 34003KT 10SM CLR M07/M11 A3062 RMK AO2
KMBO 180315Z AUTO 34004KT 10SM CLR M07/M11 A3063 RMK AO2